sensor_id;sensor_type;location;lat;lon;timestamp;P1;durP1;ratioP1;P2;durP2;ratioP2
49109;SDS011;34921;52.320;16.142;2022-07-19T00:00:14;20.00;;;10.05;;
49109;SDS011;34921;52.320;16.142;2022-07-19T00:03:02;17.55;;;10.05;;
49109;SDS011;34921;52.320;16.142;2022-07-19T00:05:30;19.98;;;10.60;;
49109;SDS011;34921;52.320;16.142;2022-07-19T00:07:57;18.05;;;10.32;;
49109;SDS011;34921;52.320;16.142;2022-07-19T00:10:25;21.17;;;10.88;;
49109;SDS011;34921;52.320;16.142;2022-07-19T00:12:53;20.43;;;10.40;;
49109;SDS011;34921;52.320;16.142;2022-07-19T00:15:21;17.12;;;9.18;;
49109;SDS011;34921;52.320;16.142;2022-07-19T00:17:49;20.30;;;10.20;;
49109;SDS011;34921;52.320;16.142;2022-07-19T00:20:19;18.15;;;10.35;;
49109;SDS011;34921;52.320;16.142;2022-07-19T00:22:48;19.73;;;10.30;;
49109;SDS011;34921;52.320;16.142;2022-07-19T00:25:16;17.53;;;9.67;;
49109;SDS011;34921;52.320;16.142;2022-07-19T00:27:44;16.50;;;9.60;;
49109;SDS011;34921;52.320;16.142;2022-07-19T00:30:12;17.30;;;10.10;;
49109;SDS011;34921;52.320;16.142;2022-07-19T00:32:40;22.02;;;10.60;;
49109;SDS011;34921;52.320;16.142;2022-07-19T00:35:08;17.85;;;9.43;;
49109;SDS011;34921;52.320;16.142;2022-07-19T00:37:36;16.00;;;8.87;;
49109;SDS011;34921;52.320;16.142;2022-07-19T00:40:04;14.03;;;8.70;;
49109;SDS011;34921;52.320;16.142;2022-07-19T00:42:32;18.30;;;8.90;;
49109;SDS011;34921;52.320;16.142;2022-07-19T00:45:00;18.45;;;9.30;;
49109;SDS011;34921;52.320;16.142;2022-07-19T00:47:27;16.85;;;9.35;;
49109;SDS011;34921;52.320;16.142;2022-07-19T00:49:55;18.82;;;9.03;;
49109;SDS011;34921;52.320;16.142;2022-07-19T00:52:23;17.62;;;9.50;;
49109;SDS011;34921;52.320;16.142;2022-07-19T00:54:53;18.57;;;8.95;;
49109;SDS011;34921;52.320;16.142;2022-07-19T00:57:23;16.40;;;8.45;;
49109;SDS011;34921;52.320;16.142;2022-07-19T00:59:54;18.43;;;9.33;;
49109;SDS011;34921;52.320;16.142;2022-07-19T01:02:22;16.52;;;8.95;;
49109;SDS011;34921;52.320;16.142;2022-07-19T01:04:50;18.62;;;8.73;;
49109;SDS011;34921;52.320;16.142;2022-07-19T01:07:17;15.45;;;8.53;;
49109;SDS011;34921;52.320;16.142;2022-07-19T01:09:45;16.60;;;8.68;;
49109;SDS011;34921;52.320;16.142;2022-07-19T01:12:13;16.82;;;8.73;;
49109;SDS011;34921;52.320;16.142;2022-07-19T01:14:41;20.25;;;8.83;;
49109;SDS011;34921;52.320;16.142;2022-07-19T01:17:09;15.25;;;8.98;;
49109;SDS011;34921;52.320;16.142;2022-07-19T01:19:36;16.55;;;9.23;;
49109;SDS011;34921;52.320;16.142;2022-07-19T01:22:04;19.12;;;9.00;;
49109;SDS011;34921;52.320;16.142;2022-07-19T01:24:32;16.48;;;8.95;;
49109;SDS011;34921;52.320;16.142;2022-07-19T01:27:00;17.10;;;8.28;;
49109;SDS011;34921;52.320;16.142;2022-07-19T01:29:27;16.62;;;8.85;;
49109;SDS011;34921;52.320;16.142;2022-07-19T01:31:55;14.95;;;8.63;;
49109;SDS011;34921;52.320;16.142;2022-07-19T01:34:23;15.05;;;8.68;;
49109;SDS011;34921;52.320;16.142;2022-07-19T01:36:50;18.73;;;9.20;;
49109;SDS011;34921;52.320;16.142;2022-07-19T01:39:18;18.32;;;8.68;;
49109;SDS011;34921;52.320;16.142;2022-07-19T01:41:46;15.75;;;8.18;;
49109;SDS011;34921;52.320;16.142;2022-07-19T01:44:13;13.22;;;8.18;;
49109;SDS011;34921;52.320;16.142;2022-07-19T01:46:41;15.23;;;8.70;;
49109;SDS011;34921;52.320;16.142;2022-07-19T01:49:09;14.20;;;8.08;;
49109;SDS011;34921;52.320;16.142;2022-07-19T01:51:37;14.03;;;7.97;;
49109;SDS011;34921;52.320;16.142;2022-07-19T01:54:04;16.12;;;8.98;;
49109;SDS011;34921;52.320;16.142;2022-07-19T01:56:32;15.63;;;8.00;;
49109;SDS011;34921;52.320;16.142;2022-07-19T01:59:00;16.32;;;8.50;;
49109;SDS011;34921;52.320;16.142;2022-07-19T02:01:27;16.87;;;8.43;;
49109;SDS011;34921;52.320;16.142;2022-07-19T02:03:55;16.48;;;7.90;;
49109;SDS011;34921;52.320;16.142;2022-07-19T02:06:23;14.15;;;8.00;;
49109;SDS011;34921;52.320;16.142;2022-07-19T02:08:50;14.23;;;7.95;;
49109;SDS011;34921;52.320;16.142;2022-07-19T02:11:18;16.60;;;8.45;;
49109;SDS011;34921;52.320;16.142;2022-07-19T02:14:05;14.30;;;8.20;;
49109;SDS011;34921;52.320;16.142;2022-07-19T02:16:34;14.57;;;8.27;;
49109;SDS011;34921;52.320;16.142;2022-07-19T02:19:03;16.02;;;8.53;;
49109;SDS011;34921;52.320;16.142;2022-07-19T02:21:33;15.10;;;8.25;;
49109;SDS011;34921;52.320;16.142;2022-07-19T02:24:02;11.48;;;7.58;;
49109;SDS011;34921;52.320;16.142;2022-07-19T02:26:31;14.43;;;7.75;;
49109;SDS011;34921;52.320;16.142;2022-07-19T02:28:59;15.40;;;8.48;;
49109;SDS011;34921;52.320;16.142;2022-07-19T02:31:27;15.53;;;8.80;;
49109;SDS011;34921;52.320;16.142;2022-07-19T02:33:54;13.65;;;7.80;;
49109;SDS011;34921;52.320;16.142;2022-07-19T02:36:22;15.68;;;7.92;;
49109;SDS011;34921;52.320;16.142;2022-07-19T02:38:50;13.32;;;7.75;;
49109;SDS011;34921;52.320;16.142;2022-07-19T02:41:17;14.70;;;8.10;;
49109;SDS011;34921;52.320;16.142;2022-07-19T02:43:45;16.32;;;8.38;;
49109;SDS011;34921;52.320;16.142;2022-07-19T02:46:13;13.98;;;8.00;;
49109;SDS011;34921;52.320;16.142;2022-07-19T02:48:40;15.03;;;8.40;;
49109;SDS011;34921;52.320;16.142;2022-07-19T02:51:11;15.08;;;8.38;;
49109;SDS011;34921;52.320;16.142;2022-07-19T02:53:39;16.82;;;8.45;;
49109;SDS011;34921;52.320;16.142;2022-07-19T02:56:07;16.65;;;9.00;;
49109;SDS011;34921;52.320;16.142;2022-07-19T02:58:34;16.05;;;8.95;;
49109;SDS011;34921;52.320;16.142;2022-07-19T03:01:02;15.48;;;8.58;;
49109;SDS011;34921;52.320;16.142;2022-07-19T03:03:30;14.78;;;9.10;;
49109;SDS011;34921;52.320;16.142;2022-07-19T03:06:17;21.10;;;10.38;;
49109;SDS011;34921;52.320;16.142;2022-07-19T03:08:46;22.70;;;10.93;;
49109;SDS011;34921;52.320;16.142;2022-07-19T03:11:14;18.98;;;10.55;;
49109;SDS011;34921;52.320;16.142;2022-07-19T03:13:42;19.00;;;10.38;;
49109;SDS011;34921;52.320;16.142;2022-07-19T03:16:09;19.80;;;10.05;;
49109;SDS011;34921;52.320;16.142;2022-07-19T03:18:37;19.60;;;10.18;;
49109;SDS011;34921;52.320;16.142;2022-07-19T03:21:05;19.45;;;10.13;;
49109;SDS011;34921;52.320;16.142;2022-07-19T03:23:33;16.35;;;8.85;;
49109;SDS011;34921;52.320;16.142;2022-07-19T03:26:03;15.05;;;9.83;;
49109;SDS011;34921;52.320;16.142;2022-07-19T03:28:32;17.73;;;9.03;;
49109;SDS011;34921;52.320;16.142;2022-07-19T03:31:00;15.50;;;9.40;;
49109;SDS011;34921;52.320;16.142;2022-07-19T03:33:28;20.83;;;10.83;;
49109;SDS011;34921;52.320;16.142;2022-07-19T03:35:57;16.02;;;9.23;;
49109;SDS011;34921;52.320;16.142;2022-07-19T03:38:24;18.23;;;9.28;;
49109;SDS011;34921;52.320;16.142;2022-07-19T03:40:52;17.07;;;9.08;;
49109;SDS011;34921;52.320;16.142;2022-07-19T03:43:20;16.57;;;8.65;;
49109;SDS011;34921;52.320;16.142;2022-07-19T03:45:48;19.67;;;9.18;;
49109;SDS011;34921;52.320;16.142;2022-07-19T03:48:16;17.40;;;8.80;;
49109;SDS011;34921;52.320;16.142;2022-07-19T03:50:44;19.77;;;9.43;;
49109;SDS011;34921;52.320;16.142;2022-07-19T03:53:12;18.92;;;9.48;;
49109;SDS011;34921;52.320;16.142;2022-07-19T03:55:40;18.23;;;8.78;;
49109;SDS011;34921;52.320;16.142;2022-07-19T03:58:08;19.30;;;10.15;;
49109;SDS011;34921;52.320;16.142;2022-07-19T04:00:36;24.05;;;9.63;;
49109;SDS011;34921;52.320;16.142;2022-07-19T04:03:04;24.30;;;9.80;;
49109;SDS011;34921;52.320;16.142;2022-07-19T04:05:31;20.48;;;9.70;;
49109;SDS011;34921;52.320;16.142;2022-07-19T04:07:59;20.82;;;10.30;;
49109;SDS011;34921;52.320;16.142;2022-07-19T04:10:27;24.00;;;10.08;;
49109;SDS011;34921;52.320;16.142;2022-07-19T04:12:55;19.48;;;9.28;;
49109;SDS011;34921;52.320;16.142;2022-07-19T04:15:22;23.83;;;10.10;;
49109;SDS011;34921;52.320;16.142;2022-07-19T04:17:50;15.72;;;8.68;;
49109;SDS011;34921;52.320;16.142;2022-07-19T04:20:18;18.05;;;10.40;;
49109;SDS011;34921;52.320;16.142;2022-07-19T04:22:45;14.53;;;9.23;;
49109;SDS011;34921;52.320;16.142;2022-07-19T04:25:13;17.98;;;9.35;;
49109;SDS011;34921;52.320;16.142;2022-07-19T04:27:41;18.20;;;9.28;;
49109;SDS011;34921;52.320;16.142;2022-07-19T04:30:09;18.02;;;8.55;;
49109;SDS011;34921;52.320;16.142;2022-07-19T04:32:37;15.28;;;9.20;;
49109;SDS011;34921;52.320;16.142;2022-07-19T04:35:05;17.90;;;9.20;;
49109;SDS011;34921;52.320;16.142;2022-07-19T04:37:34;16.17;;;8.43;;
49109;SDS011;34921;52.320;16.142;2022-07-19T04:40:02;15.50;;;8.50;;
49109;SDS011;34921;52.320;16.142;2022-07-19T04:42:31;16.65;;;9.35;;
49109;SDS011;34921;52.320;16.142;2022-07-19T04:45:00;16.42;;;8.73;;
49109;SDS011;34921;52.320;16.142;2022-07-19T04:47:27;12.75;;;7.92;;
49109;SDS011;34921;52.320;16.142;2022-07-19T04:49:55;20.15;;;9.03;;
49109;SDS011;34921;52.320;16.142;2022-07-19T04:52:22;16.02;;;8.70;;
49109;SDS011;34921;52.320;16.142;2022-07-19T04:54:50;14.83;;;8.83;;
49109;SDS011;34921;52.320;16.142;2022-07-19T04:57:18;15.32;;;8.55;;
49109;SDS011;34921;52.320;16.142;2022-07-19T04:59:46;19.35;;;8.20;;
49109;SDS011;34921;52.320;16.142;2022-07-19T05:02:13;13.85;;;7.42;;
49109;SDS011;34921;52.320;16.142;2022-07-19T05:04:41;9.80;;;6.42;;
49109;SDS011;34921;52.320;16.142;2022-07-19T05:07:09;13.25;;;7.62;;
49109;SDS011;34921;52.320;16.142;2022-07-19T05:09:36;14.55;;;7.50;;
49109;SDS011;34921;52.320;16.142;2022-07-19T05:12:04;12.90;;;7.07;;
49109;SDS011;34921;52.320;16.142;2022-07-19T05:14:34;16.00;;;7.55;;
49109;SDS011;34921;52.320;16.142;2022-07-19T05:17:02;14.05;;;7.45;;
49109;SDS011;34921;52.320;16.142;2022-07-19T05:19:30;13.88;;;7.10;;
49109;SDS011;34921;52.320;16.142;2022-07-19T05:21:58;12.85;;;7.37;;
49109;SDS011;34921;52.320;16.142;2022-07-19T05:24:25;10.88;;;7.05;;
49109;SDS011;34921;52.320;16.142;2022-07-19T05:26:53;16.25;;;7.65;;
49109;SDS011;34921;52.320;16.142;2022-07-19T05:29:21;12.40;;;6.97;;
49109;SDS011;34921;52.320;16.142;2022-07-19T05:31:48;14.30;;;6.87;;
49109;SDS011;34921;52.320;16.142;2022-07-19T05:34:16;11.15;;;6.62;;
49109;SDS011;34921;52.320;16.142;2022-07-19T05:36:44;11.85;;;6.87;;
49109;SDS011;34921;52.320;16.142;2022-07-19T05:39:12;14.25;;;6.78;;
49109;SDS011;34921;52.320;16.142;2022-07-19T05:41:39;15.00;;;7.20;;
49109;SDS011;34921;52.320;16.142;2022-07-19T05:44:07;14.85;;;6.87;;
49109;SDS011;34921;52.320;16.142;2022-07-19T05:46:35;12.47;;;6.70;;
49109;SDS011;34921;52.320;16.142;2022-07-19T05:49:08;14.45;;;6.08;;
49109;SDS011;34921;52.320;16.142;2022-07-19T05:51:36;10.93;;;6.42;;
49109;SDS011;34921;52.320;16.142;2022-07-19T05:54:04;12.93;;;6.30;;
49109;SDS011;34921;52.320;16.142;2022-07-19T05:56:32;12.68;;;6.12;;
49109;SDS011;34921;52.320;16.142;2022-07-19T05:59:00;14.38;;;6.10;;
49109;SDS011;34921;52.320;16.142;2022-07-19T06:01:29;13.28;;;5.92;;
49109;SDS011;34921;52.320;16.142;2022-07-19T06:03:57;15.30;;;7.20;;
49109;SDS011;34921;52.320;16.142;2022-07-19T06:06:30;13.37;;;6.80;;
49109;SDS011;34921;52.320;16.142;2022-07-19T06:08:59;10.50;;;6.17;;
49109;SDS011;34921;52.320;16.142;2022-07-19T06:11:28;12.23;;;5.87;;
49109;SDS011;34921;52.320;16.142;2022-07-19T06:13:56;10.20;;;5.80;;
49109;SDS011;34921;52.320;16.142;2022-07-19T06:16:24;14.55;;;5.42;;
49109;SDS011;34921;52.320;16.142;2022-07-19T06:18:52;10.32;;;5.33;;
49109;SDS011;34921;52.320;16.142;2022-07-19T06:21:20;10.72;;;5.70;;
49109;SDS011;34921;52.320;16.142;2022-07-19T06:23:49;9.25;;;5.37;;
49109;SDS011;34921;52.320;16.142;2022-07-19T06:26:17;9.93;;;5.72;;
49109;SDS011;34921;52.320;16.142;2022-07-19T06:28:44;10.60;;;5.40;;
49109;SDS011;34921;52.320;16.142;2022-07-19T06:31:13;10.85;;;4.92;;
49109;SDS011;34921;52.320;16.142;2022-07-19T06:33:42;11.30;;;5.37;;
49109;SDS011;34921;52.320;16.142;2022-07-19T06:36:11;9.03;;;5.10;;
49109;SDS011;34921;52.320;16.142;2022-07-19T06:38:39;7.42;;;4.67;;
49109;SDS011;34921;52.320;16.142;2022-07-19T06:41:09;9.03;;;5.45;;
49109;SDS011;34921;52.320;16.142;2022-07-19T06:43:38;10.80;;;5.37;;
49109;SDS011;34921;52.320;16.142;2022-07-19T06:46:06;10.55;;;4.78;;
49109;SDS011;34921;52.320;16.142;2022-07-19T06:48:34;8.10;;;4.50;;
49109;SDS011;34921;52.320;16.142;2022-07-19T06:51:03;9.05;;;5.08;;
49109;SDS011;34921;52.320;16.142;2022-07-19T06:53:33;10.40;;;5.15;;
49109;SDS011;34921;52.320;16.142;2022-07-19T06:56:01;8.73;;;4.90;;
49109;SDS011;34921;52.320;16.142;2022-07-19T06:58:29;9.48;;;4.35;;
49109;SDS011;34921;52.320;16.142;2022-07-19T07:00:57;9.65;;;5.00;;
49109;SDS011;34921;52.320;16.142;2022-07-19T07:03:24;9.78;;;4.92;;
49109;SDS011;34921;52.320;16.142;2022-07-19T07:05:52;10.88;;;4.85;;
49109;SDS011;34921;52.320;16.142;2022-07-19T07:08:20;10.60;;;4.33;;
49109;SDS011;34921;52.320;16.142;2022-07-19T07:10:48;8.88;;;4.70;;
49109;SDS011;34921;52.320;16.142;2022-07-19T07:13:15;7.72;;;4.62;;
49109;SDS011;34921;52.320;16.142;2022-07-19T07:15:43;9.57;;;4.47;;
49109;SDS011;34921;52.320;16.142;2022-07-19T07:18:12;6.55;;;4.62;;
49109;SDS011;34921;52.320;16.142;2022-07-19T07:20:40;9.10;;;4.67;;
49109;SDS011;34921;52.320;16.142;2022-07-19T07:23:08;9.18;;;4.53;;
49109;SDS011;34921;52.320;16.142;2022-07-19T07:25:36;8.63;;;4.62;;
49109;SDS011;34921;52.320;16.142;2022-07-19T07:28:04;9.18;;;4.50;;
49109;SDS011;34921;52.320;16.142;2022-07-19T07:30:31;8.95;;;4.92;;
49109;SDS011;34921;52.320;16.142;2022-07-19T07:32:59;6.85;;;4.55;;
49109;SDS011;34921;52.320;16.142;2022-07-19T07:35:27;7.70;;;4.50;;
49109;SDS011;34921;52.320;16.142;2022-07-19T07:37:55;10.15;;;4.92;;
49109;SDS011;34921;52.320;16.142;2022-07-19T07:40:22;14.63;;;4.72;;
49109;SDS011;34921;52.320;16.142;2022-07-19T07:42:50;9.95;;;5.00;;
49109;SDS011;34921;52.320;16.142;2022-07-19T07:45:18;6.90;;;4.58;;
49109;SDS011;34921;52.320;16.142;2022-07-19T07:47:46;8.48;;;3.72;;
49109;SDS011;34921;52.320;16.142;2022-07-19T07:50:13;7.08;;;4.30;;
49109;SDS011;34921;52.320;16.142;2022-07-19T07:52:41;7.60;;;3.90;;
49109;SDS011;34921;52.320;16.142;2022-07-19T07:55:09;7.72;;;4.08;;
49109;SDS011;34921;52.320;16.142;2022-07-19T07:57:37;7.53;;;4.00;;
49109;SDS011;34921;52.320;16.142;2022-07-19T08:00:05;7.92;;;4.40;;
49109;SDS011;34921;52.320;16.142;2022-07-19T08:02:41;9.40;;;4.42;;
49109;SDS011;34921;52.320;16.142;2022-07-19T08:05:11;9.83;;;3.75;;
49109;SDS011;34921;52.320;16.142;2022-07-19T08:07:39;5.95;;;3.60;;
49109;SDS011;34921;52.320;16.142;2022-07-19T08:10:07;4.92;;;3.02;;
49109;SDS011;34921;52.320;16.142;2022-07-19T08:12:36;9.18;;;3.55;;
49109;SDS011;34921;52.320;16.142;2022-07-19T08:15:04;7.97;;;3.00;;
49109;SDS011;34921;52.320;16.142;2022-07-19T08:17:32;5.78;;;3.40;;
49109;SDS011;34921;52.320;16.142;2022-07-19T08:20:00;8.40;;;3.62;;
49109;SDS011;34921;52.320;16.142;2022-07-19T08:22:28;7.30;;;3.10;;
49109;SDS011;34921;52.320;16.142;2022-07-19T08:24:56;7.10;;;2.90;;
49109;SDS011;34921;52.320;16.142;2022-07-19T08:27:24;5.40;;;3.22;;
49109;SDS011;34921;52.320;16.142;2022-07-19T08:29:52;4.17;;;2.95;;
49109;SDS011;34921;52.320;16.142;2022-07-19T08:32:19;5.72;;;2.90;;
49109;SDS011;34921;52.320;16.142;2022-07-19T08:34:47;5.95;;;2.70;;
49109;SDS011;34921;52.320;16.142;2022-07-19T08:37:15;5.45;;;2.85;;
49109;SDS011;34921;52.320;16.142;2022-07-19T08:39:43;7.15;;;2.80;;
49109;SDS011;34921;52.320;16.142;2022-07-19T08:42:11;6.00;;;2.87;;
49109;SDS011;34921;52.320;16.142;2022-07-19T08:44:38;6.95;;;2.83;;
49109;SDS011;34921;52.320;16.142;2022-07-19T08:47:09;5.95;;;2.67;;
49109;SDS011;34921;52.320;16.142;2022-07-19T08:49:41;6.55;;;2.62;;
49109;SDS011;34921;52.320;16.142;2022-07-19T08:52:10;5.58;;;2.87;;
49109;SDS011;34921;52.320;16.142;2022-07-19T08:54:39;6.60;;;2.60;;
49109;SDS011;34921;52.320;16.142;2022-07-19T08:57:06;5.37;;;2.87;;
49109;SDS011;34921;52.320;16.142;2022-07-19T08:59:53;5.90;;;2.70;;
49109;SDS011;34921;52.320;16.142;2022-07-19T09:02:20;5.72;;;3.00;;
49109;SDS011;34921;52.320;16.142;2022-07-19T09:05:05;5.28;;;2.37;;
49109;SDS011;34921;52.320;16.142;2022-07-19T09:07:38;4.15;;;2.65;;
49109;SDS011;34921;52.320;16.142;2022-07-19T09:10:18;6.92;;;2.50;;
49109;SDS011;34921;52.320;16.142;2022-07-19T09:15:43;4.47;;;2.80;;
49109;SDS011;34921;52.320;16.142;2022-07-19T09:20:51;4.78;;;2.52;;
49109;SDS011;34921;52.320;16.142;2022-07-19T09:23:23;4.78;;;2.70;;
49109;SDS011;34921;52.320;16.142;2022-07-19T09:28:29;5.12;;;2.62;;
49109;SDS011;34921;52.320;16.142;2022-07-19T09:31:00;3.83;;;2.42;;
49109;SDS011;34921;52.320;16.142;2022-07-19T09:33:31;4.67;;;2.20;;
49109;SDS011;34921;52.320;16.142;2022-07-19T09:38:35;6.15;;;2.58;;
49109;SDS011;34921;52.320;16.142;2022-07-19T09:41:17;4.05;;;2.25;;
49109;SDS011;34921;52.320;16.142;2022-07-19T09:46:30;4.83;;;2.47;;
49109;SDS011;34921;52.320;16.142;2022-07-19T09:49:14;5.00;;;2.12;;
49109;SDS011;34921;52.320;16.142;2022-07-19T09:51:47;6.12;;;2.62;;
49109;SDS011;34921;52.320;16.142;2022-07-19T09:54:18;5.58;;;2.80;;
49109;SDS011;34921;52.320;16.142;2022-07-19T09:56:48;4.67;;;2.33;;
49109;SDS011;34921;52.320;16.142;2022-07-19T09:59:20;4.65;;;2.22;;
49109;SDS011;34921;52.320;16.142;2022-07-19T10:01:51;7.25;;;2.15;;
49109;SDS011;34921;52.320;16.142;2022-07-19T10:04:22;8.00;;;2.47;;
49109;SDS011;34921;52.320;16.142;2022-07-19T10:06:52;3.97;;;2.27;;
49109;SDS011;34921;52.320;16.142;2022-07-19T10:09:22;5.15;;;2.55;;
49109;SDS011;34921;52.320;16.142;2022-07-19T10:11:51;3.87;;;2.27;;
49109;SDS011;34921;52.320;16.142;2022-07-19T10:14:19;4.85;;;2.50;;
49109;SDS011;34921;52.320;16.142;2022-07-19T10:22:01;3.37;;;2.17;;
49109;SDS011;34921;52.320;16.142;2022-07-19T10:24:49;5.67;;;2.22;;
49109;SDS011;34921;52.320;16.142;2022-07-19T10:35:15;5.35;;;2.20;;
49109;SDS011;34921;52.320;16.142;2022-07-19T10:38:10;6.20;;;2.17;;
49109;SDS011;34921;52.320;16.142;2022-07-19T10:43:14;4.22;;;2.27;;
49109;SDS011;34921;52.320;16.142;2022-07-19T10:45:43;4.50;;;2.08;;
49109;SDS011;34921;52.320;16.142;2022-07-19T10:51:06;4.70;;;2.00;;
49109;SDS011;34921;52.320;16.142;2022-07-19T11:03:46;5.00;;;2.12;;
49109;SDS011;34921;52.320;16.142;2022-07-19T11:06:23;4.70;;;1.70;;
49109;SDS011;34921;52.320;16.142;2022-07-19T11:08:56;5.05;;;1.98;;
49109;SDS011;34921;52.320;16.142;2022-07-19T11:11:25;4.20;;;1.80;;
49109;SDS011;34921;52.320;16.142;2022-07-19T11:13:56;9.45;;;2.08;;
49109;SDS011;34921;52.320;16.142;2022-07-19T11:16:26;3.30;;;1.90;;
49109;SDS011;34921;52.320;16.142;2022-07-19T11:19:06;3.83;;;2.12;;
49109;SDS011;34921;52.320;16.142;2022-07-19T11:21:35;3.65;;;1.95;;
49109;SDS011;34921;52.320;16.142;2022-07-19T11:26:36;5.50;;;2.05;;
49109;SDS011;34921;52.320;16.142;2022-07-19T11:29:05;2.60;;;1.90;;
49109;SDS011;34921;52.320;16.142;2022-07-19T11:31:33;3.77;;;2.22;;
49109;SDS011;34921;52.320;16.142;2022-07-19T11:34:00;4.65;;;1.90;;
49109;SDS011;34921;52.320;16.142;2022-07-19T11:36:28;2.95;;;2.12;;
49109;SDS011;34921;52.320;16.142;2022-07-19T11:38:57;2.83;;;1.85;;
49109;SDS011;34921;52.320;16.142;2022-07-19T11:41:29;4.05;;;2.20;;
49109;SDS011;34921;52.320;16.142;2022-07-19T11:43:59;3.00;;;1.82;;
49109;SDS011;34921;52.320;16.142;2022-07-19T11:46:32;5.70;;;2.10;;
49109;SDS011;34921;52.320;16.142;2022-07-19T11:49:08;6.08;;;2.55;;
49109;SDS011;34921;52.320;16.142;2022-07-19T11:51:37;6.55;;;2.10;;
49109;SDS011;34921;52.320;16.142;2022-07-19T11:54:06;3.25;;;1.90;;
49109;SDS011;34921;52.320;16.142;2022-07-19T11:56:35;4.75;;;2.20;;
49109;SDS011;34921;52.320;16.142;2022-07-19T11:59:04;2.72;;;1.90;;
49109;SDS011;34921;52.320;16.142;2022-07-19T12:01:39;4.47;;;1.90;;
49109;SDS011;34921;52.320;16.142;2022-07-19T12:04:08;3.17;;;2.12;;
49109;SDS011;34921;52.320;16.142;2022-07-19T12:06:46;5.08;;;2.42;;
49109;SDS011;34921;52.320;16.142;2022-07-19T12:09:19;3.65;;;2.10;;
49109;SDS011;34921;52.320;16.142;2022-07-19T12:11:53;3.67;;;2.10;;
49109;SDS011;34921;52.320;16.142;2022-07-19T12:19:46;3.62;;;2.00;;
49109;SDS011;34921;52.320;16.142;2022-07-19T12:22:29;3.70;;;2.20;;
49109;SDS011;34921;52.320;16.142;2022-07-19T12:25:02;4.40;;;2.00;;
49109;SDS011;34921;52.320;16.142;2022-07-19T12:27:31;3.65;;;2.35;;
49109;SDS011;34921;52.320;16.142;2022-07-19T12:30:00;5.60;;;2.10;;
49109;SDS011;34921;52.320;16.142;2022-07-19T12:32:32;4.05;;;1.95;;
49109;SDS011;34921;52.320;16.142;2022-07-19T12:35:11;4.37;;;2.00;;
49109;SDS011;34921;52.320;16.142;2022-07-19T12:37:45;4.87;;;1.87;;
49109;SDS011;34921;52.320;16.142;2022-07-19T12:40:21;2.62;;;1.72;;
49109;SDS011;34921;52.320;16.142;2022-07-19T12:42:59;4.60;;;1.80;;
49109;SDS011;34921;52.320;16.142;2022-07-19T12:45:29;7.10;;;1.80;;
49109;SDS011;34921;52.320;16.142;2022-07-19T12:47:58;4.07;;;1.80;;
49109;SDS011;34921;52.320;16.142;2022-07-19T12:50:28;4.37;;;1.90;;
49109;SDS011;34921;52.320;16.142;2022-07-19T12:53:05;4.03;;;2.10;;
49109;SDS011;34921;52.320;16.142;2022-07-19T12:55:34;2.40;;;1.65;;
49109;SDS011;34921;52.320;16.142;2022-07-19T12:58:04;4.80;;;2.02;;
49109;SDS011;34921;52.320;16.142;2022-07-19T13:00:34;3.40;;;2.00;;
49109;SDS011;34921;52.320;16.142;2022-07-19T13:03:06;5.28;;;2.02;;
49109;SDS011;34921;52.320;16.142;2022-07-19T13:05:34;3.75;;;1.90;;
49109;SDS011;34921;52.320;16.142;2022-07-19T13:08:03;5.42;;;1.95;;
49109;SDS011;34921;52.320;16.142;2022-07-19T13:10:34;4.20;;;1.80;;
49109;SDS011;34921;52.320;16.142;2022-07-19T13:13:02;3.40;;;1.82;;
49109;SDS011;34921;52.320;16.142;2022-07-19T13:15:32;4.00;;;1.90;;
49109;SDS011;34921;52.320;16.142;2022-07-19T13:18:00;5.10;;;1.82;;
49109;SDS011;34921;52.320;16.142;2022-07-19T13:20:28;5.97;;;2.05;;
49109;SDS011;34921;52.320;16.142;2022-07-19T13:22:56;4.90;;;2.10;;
49109;SDS011;34921;52.320;16.142;2022-07-19T13:25:23;4.92;;;2.33;;
49109;SDS011;34921;52.320;16.142;2022-07-19T13:27:51;5.28;;;2.20;;
49109;SDS011;34921;52.320;16.142;2022-07-19T13:30:21;4.12;;;1.90;;
49109;SDS011;34921;52.320;16.142;2022-07-19T13:32:49;6.85;;;1.98;;
49109;SDS011;34921;52.320;16.142;2022-07-19T13:35:17;5.70;;;1.87;;
49109;SDS011;34921;52.320;16.142;2022-07-19T13:37:45;4.50;;;1.90;;
49109;SDS011;34921;52.320;16.142;2022-07-19T13:40:14;4.53;;;2.15;;
49109;SDS011;34921;52.320;16.142;2022-07-19T13:42:42;3.83;;;2.13;;
49109;SDS011;34921;52.320;16.142;2022-07-19T13:45:10;4.97;;;2.30;;
49109;SDS011;34921;52.320;16.142;2022-07-19T13:47:37;7.08;;;2.50;;
49109;SDS011;34921;52.320;16.142;2022-07-19T13:50:05;4.55;;;2.12;;
49109;SDS011;34921;52.320;16.142;2022-07-19T13:55:03;8.47;;;3.97;;
49109;SDS011;34921;52.320;16.142;2022-07-19T13:57:31;4.37;;;2.58;;
49109;SDS011;34921;52.320;16.142;2022-07-19T13:59:59;3.87;;;2.00;;
49109;SDS011;34921;52.320;16.142;2022-07-19T14:02:27;5.35;;;2.25;;
49109;SDS011;34921;52.320;16.142;2022-07-19T14:04:55;8.58;;;2.47;;
49109;SDS011;34921;52.320;16.142;2022-07-19T14:07:23;4.78;;;2.27;;
49109;SDS011;34921;52.320;16.142;2022-07-19T14:09:50;3.65;;;2.15;;
49109;SDS011;34921;52.320;16.142;2022-07-19T14:12:18;5.60;;;2.58;;
49109;SDS011;34921;52.320;16.142;2022-07-19T14:14:46;4.80;;;1.97;;
49109;SDS011;34921;52.320;16.142;2022-07-19T14:17:15;5.43;;;2.30;;
49109;SDS011;34921;52.320;16.142;2022-07-19T14:19:44;3.87;;;2.10;;
49109;SDS011;34921;52.320;16.142;2022-07-19T14:22:13;5.00;;;2.10;;
49109;SDS011;34921;52.320;16.142;2022-07-19T14:24:41;5.00;;;2.30;;
49109;SDS011;34921;52.320;16.142;2022-07-19T14:27:09;4.40;;;2.07;;
49109;SDS011;34921;52.320;16.142;2022-07-19T14:29:37;6.83;;;2.15;;
49109;SDS011;34921;52.320;16.142;2022-07-19T14:32:05;3.55;;;1.90;;
49109;SDS011;34921;52.320;16.142;2022-07-19T14:34:33;3.72;;;2.10;;
49109;SDS011;34921;52.320;16.142;2022-07-19T14:37:01;5.77;;;2.30;;
49109;SDS011;34921;52.320;16.142;2022-07-19T14:39:28;3.90;;;2.40;;
49109;SDS011;34921;52.320;16.142;2022-07-19T14:41:56;5.70;;;2.10;;
49109;SDS011;34921;52.320;16.142;2022-07-19T14:44:26;4.53;;;2.30;;
49109;SDS011;34921;52.320;16.142;2022-07-19T14:46:54;5.00;;;2.35;;
49109;SDS011;34921;52.320;16.142;2022-07-19T14:49:22;5.33;;;2.10;;
49109;SDS011;34921;52.320;16.142;2022-07-19T14:51:51;5.42;;;2.47;;
49109;SDS011;34921;52.320;16.142;2022-07-19T14:54:19;6.05;;;2.20;;
49109;SDS011;34921;52.320;16.142;2022-07-19T14:56:47;4.53;;;2.27;;
49109;SDS011;34921;52.320;16.142;2022-07-19T14:59:15;6.15;;;2.10;;
49109;SDS011;34921;52.320;16.142;2022-07-19T15:01:44;4.97;;;2.20;;
49109;SDS011;34921;52.320;16.142;2022-07-19T15:04:13;6.33;;;2.87;;
49109;SDS011;34921;52.320;16.142;2022-07-19T15:06:41;6.05;;;2.72;;
49109;SDS011;34921;52.320;16.142;2022-07-19T15:09:10;4.97;;;2.15;;
49109;SDS011;34921;52.320;16.142;2022-07-19T15:11:40;4.95;;;2.37;;
49109;SDS011;34921;52.320;16.142;2022-07-19T15:14:08;3.70;;;2.20;;
49109;SDS011;34921;52.320;16.142;2022-07-19T15:16:37;5.50;;;2.50;;
49109;SDS011;34921;52.320;16.142;2022-07-19T15:19:05;5.65;;;2.47;;
49109;SDS011;34921;52.320;16.142;2022-07-19T15:21:34;5.53;;;2.20;;
49109;SDS011;34921;52.320;16.142;2022-07-19T15:24:03;3.50;;;2.20;;
49109;SDS011;34921;52.320;16.142;2022-07-19T15:26:31;5.83;;;2.37;;
49109;SDS011;34921;52.320;16.142;2022-07-19T15:28:59;6.72;;;2.70;;
49109;SDS011;34921;52.320;16.142;2022-07-19T15:31:27;5.15;;;2.20;;